sensor_id;sensor_type;location;lat;lon;timestamp;temperature;humidity
13970;DHT22;7057;49.984;8.404;2022-11-14T00:00:51;6.90;99.90
13970;DHT22;7057;49.984;8.404;2022-11-14T00:03:18;6.80;99.90
13970;DHT22;7057;49.984;8.404;2022-11-14T00:05:46;6.70;99.90
13970;DHT22;7057;49.984;8.404;2022-11-14T00:08:16;6.70;99.90
13970;DHT22;7057;49.984;8.404;2022-11-14T00:10:46;6.70;99.90
13970;DHT22;7057;49.984;8.404;2022-11-14T00:13:14;6.70;99.90
13970;DHT22;7057;49.984;8.404;2022-11-14T00:15:43;6.70;99.90
13970;DHT22;7057;49.984;8.404;2022-11-14T00:18:10;7.20;99.90
13970;DHT22;7057;49.984;8.404;2022-11-14T00:20:37;7.00;99.90
13970;DHT22;7057;49.984;8.404;2022-11-14T00:23:05;6.90;99.90
13970;DHT22;7057;49.984;8.404;2022-11-14T00:25:33;6.80;99.90
13970;DHT22;7057;49.984;8.404;2022-11-14T00:28:00;6.70;99.90
13970;DHT22;7057;49.984;8.404;2022-11-14T00:30:27;6.70;99.90
13970;DHT22;7057;49.984;8.404;2022-11-14T00:32:55;6.70;99.90
13970;DHT22;7057;49.984;8.404;2022-11-14T00:35:22;6.60;99.90
13970;DHT22;7057;49.984;8.404;2022-11-14T00:37:49;6.50;99.90
13970;DHT22;7057;49.984;8.404;2022-11-14T00:40:16;6.50;99.90
13970;DHT22;7057;49.984;8.404;2022-11-14T00:42:45;6.50;99.90
13970;DHT22;7057;49.984;8.404;2022-11-14T00:45:12;6.40;99.90
13970;DHT22;7057;49.984;8.404;2022-11-14T00:47:39;6.40;99.90
13970;DHT22;7057;49.984;8.404;2022-11-14T00:50:08;6.30;99.90
13970;DHT22;7057;49.984;8.404;2022-11-14T00:52:35;6.10;99.90
13970;DHT22;7057;49.984;8.404;2022-11-14T00:55:03;6.00;99.90
13970;DHT22;7057;49.984;8.404;2022-11-14T00:57:30;6.00;99.90
13970;DHT22;7057;49.984;8.404;2022-11-14T00:59:59;6.10;99.90
13970;DHT22;7057;49.984;8.404;2022-11-14T01:02:26;6.10;99.90
13970;DHT22;7057;49.984;8.404;2022-11-14T01:04:53;6.10;99.90
13970;DHT22;7057;49.984;8.404;2022-11-14T01:07:20;6.10;99.90
13970;DHT22;7057;49.984;8.404;2022-11-14T01:09:48;6.20;99.90
13970;DHT22;7057;49.984;8.404;2022-11-14T01:12:15;6.20;99.90
13970;DHT22;7057;49.984;8.404;2022-11-14T01:14:42;6.30;99.90
13970;DHT22;7057;49.984;8.404;2022-11-14T01:17:10;6.20;99.90
13970;DHT22;7057;49.984;8.404;2022-11-14T01:19:37;6.20;99.90
13970;DHT22;7057;49.984;8.404;2022-11-14T01:22:05;6.30;99.90
13970;DHT22;7057;49.984;8.404;2022-11-14T01:24:32;6.30;99.90
13970;DHT22;7057;49.984;8.404;2022-11-14T01:27:00;6.20;99.90
13970;DHT22;7057;49.984;8.404;2022-11-14T01:29:27;6.30;99.90
13970;DHT22;7057;49.984;8.404;2022-11-14T01:31:55;6.40;99.90
13970;DHT22;7057;49.984;8.404;2022-11-14T01:34:23;6.30;99.90
13970;DHT22;7057;49.984;8.404;2022-11-14T01:36:51;6.40;99.90
13970;DHT22;7057;49.984;8.404;2022-11-14T01:39:18;6.50;99.90
13970;DHT22;7057;49.984;8.404;2022-11-14T01:41:45;6.50;99.90
13970;DHT22;7057;49.984;8.404;2022-11-14T01:44:14;6.40;99.90
13970;DHT22;7057;49.984;8.404;2022-11-14T01:46:45;6.40;99.90
13970;DHT22;7057;49.984;8.404;2022-11-14T01:49:16;6.50;99.90
13970;DHT22;7057;49.984;8.404;2022-11-14T01:51:49;6.50;99.90
13970;DHT22;7057;49.984;8.404;2022-11-14T01:54:19;6.40;99.90
13970;DHT22;7057;49.984;8.404;2022-11-14T01:56:50;6.40;99.90
13970;DHT22;7057;49.984;8.404;2022-11-14T01:59:21;6.50;99.90
13970;DHT22;7057;49.984;8.404;2022-11-14T02:01:52;6.30;99.90
13970;DHT22;7057;49.984;8.404;2022-11-14T02:04:22;6.00;99.90
13970;DHT22;7057;49.984;8.404;2022-11-14T02:06:54;6.20;99.90
13970;DHT22;7057;49.984;8.404;2022-11-14T02:09:23;6.40;99.90
13970;DHT22;7057;49.984;8.404;2022-11-14T02:11:52;6.30;99.90
13970;DHT22;7057;49.984;8.404;2022-11-14T02:14:20;6.30;99.90
13970;DHT22;7057;49.984;8.404;2022-11-14T02:16:47;6.30;99.90
13970;DHT22;7057;49.984;8.404;2022-11-14T02:19:16;6.30;99.90
13970;DHT22;7057;49.984;8.404;2022-11-14T02:21:45;6.40;99.90
13970;DHT22;7057;49.984;8.404;2022-11-14T02:24:12;6.10;99.90
13970;DHT22;7057;49.984;8.404;2022-11-14T02:26:40;6.00;99.90
13970;DHT22;7057;49.984;8.404;2022-11-14T02:29:09;6.10;99.90
13970;DHT22;7057;49.984;8.404;2022-11-14T02:31:37;6.20;99.90
13970;DHT22;7057;49.984;8.404;2022-11-14T02:34:04;6.40;99.90
13970;DHT22;7057;49.984;8.404;2022-11-14T02:36:31;6.30;99.90
13970;DHT22;7057;49.984;8.404;2022-11-14T02:39:00;6.40;99.90
13970;DHT22;7057;49.984;8.404;2022-11-14T02:41:27;6.50;99.90
13970;DHT22;7057;49.984;8.404;2022-11-14T02:43:54;6.60;99.90
13970;DHT22;7057;49.984;8.404;2022-11-14T02:46:21;6.50;99.90
13970;DHT22;7057;49.984;8.404;2022-11-14T02:48:48;6.60;99.90
13970;DHT22;7057;49.984;8.404;2022-11-14T02:51:16;6.60;99.90
13970;DHT22;7057;49.984;8.404;2022-11-14T02:53:43;6.60;99.90
13970;DHT22;7057;49.984;8.404;2022-11-14T02:56:11;6.60;99.90
13970;DHT22;7057;49.984;8.404;2022-11-14T02:58:38;6.50;99.90
13970;DHT22;7057;49.984;8.404;2022-11-14T03:01:06;6.60;99.90
13970;DHT22;7057;49.984;8.404;2022-11-14T03:03:33;6.60;99.90
13970;DHT22;7057;49.984;8.404;2022-11-14T03:06:01;6.60;99.90
13970;DHT22;7057;49.984;8.404;2022-11-14T03:08:29;6.60;99.90
13970;DHT22;7057;49.984;8.404;2022-11-14T03:11:03;6.60;99.90
13970;DHT22;7057;49.984;8.404;2022-11-14T03:13:31;6.60;99.90
13970;DHT22;7057;49.984;8.404;2022-11-14T03:16:04;6.60;99.90
13970;DHT22;7057;49.984;8.404;2022-11-14T03:18:31;6.50;99.90
13970;DHT22;7057;49.984;8.404;2022-11-14T03:21:04;6.40;99.90
13970;DHT22;7057;49.984;8.404;2022-11-14T03:23:31;6.40;99.90
13970;DHT22;7057;49.984;8.404;2022-11-14T03:25:59;6.40;99.90
13970;DHT22;7057;49.984;8.404;2022-11-14T03:28:27;6.20;99.90
13970;DHT22;7057;49.984;8.404;2022-11-14T03:30:55;6.20;99.90
13970;DHT22;7057;49.984;8.404;2022-11-14T03:33:23;6.20;99.90
13970;DHT22;7057;49.984;8.404;2022-11-14T03:35:51;6.20;99.90
13970;DHT22;7057;49.984;8.404;2022-11-14T03:38:19;6.20;99.90
13970;DHT22;7057;49.984;8.404;2022-11-14T03:40:48;6.30;99.90
13970;DHT22;7057;49.984;8.404;2022-11-14T03:43:15;6.40;99.90
13970;DHT22;7057;49.984;8.404;2022-11-14T03:45:42;6.50;99.90
13970;DHT22;7057;49.984;8.404;2022-11-14T03:48:11;6.50;99.90
13970;DHT22;7057;49.984;8.404;2022-11-14T03:50:39;6.40;99.90
13970;DHT22;7057;49.984;8.404;2022-11-14T03:53:06;6.30;99.90
13970;DHT22;7057;49.984;8.404;2022-11-14T03:55:33;6.00;99.90
13970;DHT22;7057;49.984;8.404;2022-11-14T03:58:01;6.00;99.90
13970;DHT22;7057;49.984;8.404;2022-11-14T04:00:28;6.00;99.90
13970;DHT22;7057;49.984;8.404;2022-11-14T04:02:55;6.00;99.90
13970;DHT22;7057;49.984;8.404;2022-11-14T04:05:24;5.90;99.90
13970;DHT22;7057;49.984;8.404;2022-11-14T04:07:51;5.80;99.90
13970;DHT22;7057;49.984;8.404;2022-11-14T04:10:19;5.70;99.90
13970;DHT22;7057;49.984;8.404;2022-11-14T04:12:47;5.70;99.90
13970;DHT22;7057;49.984;8.404;2022-11-14T04:15:15;5.50;99.90
13970;DHT22;7057;49.984;8.404;2022-11-14T04:17:42;5.50;99.90
13970;DHT22;7057;49.984;8.404;2022-11-14T04:20:10;5.50;99.90
13970;DHT22;7057;49.984;8.404;2022-11-14T04:22:39;5.30;99.90
13970;DHT22;7057;49.984;8.404;2022-11-14T04:25:07;5.20;99.90
13970;DHT22;7057;49.984;8.404;2022-11-14T04:27:35;5.20;99.90
13970;DHT22;7057;49.984;8.404;2022-11-14T04:30:02;5.20;99.90
13970;DHT22;7057;49.984;8.404;2022-11-14T04:32:30;5.30;99.90
13970;DHT22;7057;49.984;8.404;2022-11-14T04:34:57;5.40;99.90
13970;DHT22;7057;49.984;8.404;2022-11-14T04:37:24;5.40;99.90
13970;DHT22;7057;49.984;8.404;2022-11-14T04:39:53;5.70;99.90
13970;DHT22;7057;49.984;8.404;2022-11-14T04:42:23;5.50;99.90
13970;DHT22;7057;49.984;8.404;2022-11-14T04:44:50;5.40;99.90
13970;DHT22;7057;49.984;8.404;2022-11-14T04:47:18;5.50;99.90
13970;DHT22;7057;49.984;8.404;2022-11-14T04:49:45;5.60;99.90
13970;DHT22;7057;49.984;8.404;2022-11-14T04:52:12;5.70;99.90
13970;DHT22;7057;49.984;8.404;2022-11-14T04:54:39;5.90;99.90
13970;DHT22;7057;49.984;8.404;2022-11-14T04:57:08;5.90;99.90
13970;DHT22;7057;49.984;8.404;2022-11-14T04:59:35;5.90;99.90
13970;DHT22;7057;49.984;8.404;2022-11-14T05:02:02;6.00;99.90
13970;DHT22;7057;49.984;8.404;2022-11-14T05:04:29;6.10;99.90
13970;DHT22;7057;49.984;8.404;2022-11-14T05:06:56;6.10;99.90
13970;DHT22;7057;49.984;8.404;2022-11-14T05:09:24;6.00;99.90
13970;DHT22;7057;49.984;8.404;2022-11-14T05:11:51;6.00;99.90
13970;DHT22;7057;49.984;8.404;2022-11-14T05:14:19;6.00;99.90
13970;DHT22;7057;49.984;8.404;2022-11-14T05:16:46;5.90;99.90
13970;DHT22;7057;49.984;8.404;2022-11-14T05:19:14;5.60;99.90
13970;DHT22;7057;49.984;8.404;2022-11-14T05:21:41;5.60;99.90
13970;DHT22;7057;49.984;8.404;2022-11-14T05:24:08;5.70;99.90
13970;DHT22;7057;49.984;8.404;2022-11-14T05:26:35;5.70;99.90
13970;DHT22;7057;49.984;8.404;2022-11-14T05:29:03;5.90;99.90
13970;DHT22;7057;49.984;8.404;2022-11-14T05:31:31;5.30;99.90
13970;DHT22;7057;49.984;8.404;2022-11-14T05:33:58;5.50;99.90
13970;DHT22;7057;49.984;8.404;2022-11-14T05:36:26;5.60;99.90
13970;DHT22;7057;49.984;8.404;2022-11-14T05:38:53;5.50;99.90
13970;DHT22;7057;49.984;8.404;2022-11-14T05:41:20;5.60;99.90
13970;DHT22;7057;49.984;8.404;2022-11-14T05:43:47;5.70;99.90
13970;DHT22;7057;49.984;8.404;2022-11-14T05:46:15;5.60;99.90
13970;DHT22;7057;49.984;8.404;2022-11-14T05:48:44;5.40;99.90
13970;DHT22;7057;49.984;8.404;2022-11-14T05:51:12;5.50;99.90
13970;DHT22;7057;49.984;8.404;2022-11-14T05:53:39;5.40;99.90
13970;DHT22;7057;49.984;8.404;2022-11-14T05:56:09;5.30;99.90
13970;DHT22;7057;49.984;8.404;2022-11-14T05:58:37;5.30;99.90
13970;DHT22;7057;49.984;8.404;2022-11-14T06:01:07;5.40;99.90
13970;DHT22;7057;49.984;8.404;2022-11-14T06:03:37;5.60;99.90
13970;DHT22;7057;49.984;8.404;2022-11-14T06:06:08;5.80;99.90
13970;DHT22;7057;49.984;8.404;2022-11-14T06:08:36;5.90;99.90
13970;DHT22;7057;49.984;8.404;2022-11-14T06:11:04;5.80;99.90
13970;DHT22;7057;49.984;8.404;2022-11-14T06:13:32;5.70;99.90
13970;DHT22;7057;49.984;8.404;2022-11-14T06:15:59;5.80;99.90
13970;DHT22;7057;49.984;8.404;2022-11-14T06:18:27;6.10;99.90
13970;DHT22;7057;49.984;8.404;2022-11-14T06:20:58;6.10;99.90
13970;DHT22;7057;49.984;8.404;2022-11-14T06:23:27;5.90;99.90
13970;DHT22;7057;49.984;8.404;2022-11-14T06:25:57;5.90;99.90
13970;DHT22;7057;49.984;8.404;2022-11-14T06:28:26;5.50;99.90
13970;DHT22;7057;49.984;8.404;2022-11-14T06:30:56;5.20;99.90
13970;DHT22;7057;49.984;8.404;2022-11-14T06:33:24;5.00;99.90
13970;DHT22;7057;49.984;8.404;2022-11-14T06:35:56;4.90;99.90
13970;DHT22;7057;49.984;8.404;2022-11-14T06:38:23;4.80;99.90
13970;DHT22;7057;49.984;8.404;2022-11-14T06:40:52;4.80;99.90
13970;DHT22;7057;49.984;8.404;2022-11-14T06:43:27;4.80;99.90
13970;DHT22;7057;49.984;8.404;2022-11-14T06:45:54;4.80;99.90
13970;DHT22;7057;49.984;8.404;2022-11-14T06:48:21;4.80;99.90
13970;DHT22;7057;49.984;8.404;2022-11-14T06:50:51;4.90;99.90
13970;DHT22;7057;49.984;8.404;2022-11-14T06:53:18;4.90;99.90
13970;DHT22;7057;49.984;8.404;2022-11-14T06:55:53;4.90;99.90
13970;DHT22;7057;49.984;8.404;2022-11-14T06:58:21;5.00;99.90
13970;DHT22;7057;49.984;8.404;2022-11-14T07:00:48;5.00;99.90
13970;DHT22;7057;49.984;8.404;2022-11-14T07:03:15;5.00;99.90
13970;DHT22;7057;49.984;8.404;2022-11-14T07:05:42;5.00;99.90
13970;DHT22;7057;49.984;8.404;2022-11-14T07:08:09;5.10;99.90
13970;DHT22;7057;49.984;8.404;2022-11-14T07:10:37;5.20;99.90
13970;DHT22;7057;49.984;8.404;2022-11-14T07:13:05;5.20;99.90
13970;DHT22;7057;49.984;8.404;2022-11-14T07:15:35;5.20;99.90
13970;DHT22;7057;49.984;8.404;2022-11-14T07:18:03;5.30;99.90
13970;DHT22;7057;49.984;8.404;2022-11-14T07:20:30;5.30;99.90
13970;DHT22;7057;49.984;8.404;2022-11-14T07:22:57;5.30;99.90
13970;DHT22;7057;49.984;8.404;2022-11-14T07:25:24;5.30;99.90
13970;DHT22;7057;49.984;8.404;2022-11-14T07:27:52;5.30;99.90
13970;DHT22;7057;49.984;8.404;2022-11-14T07:30:20;5.30;99.90
13970;DHT22;7057;49.984;8.404;2022-11-14T07:32:54;5.30;99.90
13970;DHT22;7057;49.984;8.404;2022-11-14T07:35:22;5.30;99.90
13970;DHT22;7057;49.984;8.404;2022-11-14T07:37:49;5.30;99.90
13970;DHT22;7057;49.984;8.404;2022-11-14T07:40:17;5.30;99.90
13970;DHT22;7057;49.984;8.404;2022-11-14T07:42:44;5.40;99.90
13970;DHT22;7057;49.984;8.404;2022-11-14T07:45:11;5.40;99.90
13970;DHT22;7057;49.984;8.404;2022-11-14T07:47:40;5.50;99.90
13970;DHT22;7057;49.984;8.404;2022-11-14T07:50:08;5.60;99.90
13970;DHT22;7057;49.984;8.404;2022-11-14T07:52:36;5.60;99.90
13970;DHT22;7057;49.984;8.404;2022-11-14T07:55:03;5.70;99.90
13970;DHT22;7057;49.984;8.404;2022-11-14T07:57:30;5.70;99.90
13970;DHT22;7057;49.984;8.404;2022-11-14T07:59:58;5.80;99.90
13970;DHT22;7057;49.984;8.404;2022-11-14T08:02:25;5.90;99.90
13970;DHT22;7057;49.984;8.404;2022-11-14T08:04:53;5.90;99.90
13970;DHT22;7057;49.984;8.404;2022-11-14T08:07:21;5.90;99.90
13970;DHT22;7057;49.984;8.404;2022-11-14T08:09:48;5.90;99.90
13970;DHT22;7057;49.984;8.404;2022-11-14T08:12:15;6.00;99.90
13970;DHT22;7057;49.984;8.404;2022-11-14T08:14:42;6.00;99.90
13970;DHT22;7057;49.984;8.404;2022-11-14T08:17:09;6.10;99.90
13970;DHT22;7057;49.984;8.404;2022-11-14T08:19:36;6.20;99.90
13970;DHT22;7057;49.984;8.404;2022-11-14T08:22:05;6.10;99.90
13970;DHT22;7057;49.984;8.404;2022-11-14T08:24:32;6.00;99.90
13970;DHT22;7057;49.984;8.404;2022-11-14T08:27:00;6.10;99.90
13970;DHT22;7057;49.984;8.404;2022-11-14T08:29:27;6.10;99.90
13970;DHT22;7057;49.984;8.404;2022-11-14T08:31:54;6.10;99.90
13970;DHT22;7057;49.984;8.404;2022-11-14T08:34:21;6.20;99.90
13970;DHT22;7057;49.984;8.404;2022-11-14T08:36:48;6.20;99.90
13970;DHT22;7057;49.984;8.404;2022-11-14T08:39:17;6.20;99.90
13970;DHT22;7057;49.984;8.404;2022-11-14T08:41:44;6.30;99.90
13970;DHT22;7057;49.984;8.404;2022-11-14T08:44:11;6.40;99.90
13970;DHT22;7057;49.984;8.404;2022-11-14T08:46:38;6.50;99.90
13970;DHT22;7057;49.984;8.404;2022-11-14T08:49:06;6.60;99.90
13970;DHT22;7057;49.984;8.404;2022-11-14T08:51:33;6.60;99.90
13970;DHT22;7057;49.984;8.404;2022-11-14T08:54:00;6.70;99.90
13970;DHT22;7057;49.984;8.404;2022-11-14T08:56:29;6.80;99.90
13970;DHT22;7057;49.984;8.404;2022-11-14T08:58:56;6.80;99.90
13970;DHT22;7057;49.984;8.404;2022-11-14T09:01:23;6.80;99.90
13970;DHT22;7057;49.984;8.404;2022-11-14T09:03:50;6.80;99.90
13970;DHT22;7057;49.984;8.404;2022-11-14T09:06:17;6.80;99.90
13970;DHT22;7057;49.984;8.404;2022-11-14T09:08:44;6.70;99.90
13970;DHT22;7057;49.984;8.404;2022-11-14T09:11:12;6.70;99.90
13970;DHT22;7057;49.984;8.404;2022-11-14T09:13:40;6.70;99.90
13970;DHT22;7057;49.984;8.404;2022-11-14T09:16:08;6.80;99.90
13970;DHT22;7057;49.984;8.404;2022-11-14T09:18:35;6.80;99.90
13970;DHT22;7057;49.984;8.404;2022-11-14T09:21:05;6.90;99.90
13970;DHT22;7057;49.984;8.404;2022-11-14T09:23:33;7.00;99.90
13970;DHT22;7057;49.984;8.404;2022-11-14T09:26:03;7.00;99.90
13970;DHT22;7057;49.984;8.404;2022-11-14T09:28:30;7.00;99.90
13970;DHT22;7057;49.984;8.404;2022-11-14T09:31:03;7.10;99.90
13970;DHT22;7057;49.984;8.404;2022-11-14T09:33:32;7.20;99.90
13970;DHT22;7057;49.984;8.404;2022-11-14T09:36:01;7.20;99.90
13970;DHT22;7057;49.984;8.404;2022-11-14T09:38:29;7.30;99.90
13970;DHT22;7057;49.984;8.404;2022-11-14T09:41:04;7.30;99.90
13970;DHT22;7057;49.984;8.404;2022-11-14T09:43:49;7.40;99.90
13970;DHT22;7057;49.984;8.404;2022-11-14T09:46:26;7.60;99.90
13970;DHT22;7057;49.984;8.404;2022-11-14T09:48:57;7.50;99.90
13970;DHT22;7057;49.984;8.404;2022-11-14T09:51:27;7.50;99.90
13970;DHT22;7057;49.984;8.404;2022-11-14T09:54:04;7.50;99.90
13970;DHT22;7057;49.984;8.404;2022-11-14T09:56:33;7.70;99.90
13970;DHT22;7057;49.984;8.404;2022-11-14T09:59:00;7.80;99.90
13970;DHT22;7057;49.984;8.404;2022-11-14T10:01:38;7.70;99.90
13970;DHT22;7057;49.984;8.404;2022-11-14T10:04:16;7.70;99.90
13970;DHT22;7057;49.984;8.404;2022-11-14T10:06:54;7.70;99.90
13970;DHT22;7057;49.984;8.404;2022-11-14T10:09:51;7.70;99.90
13970;DHT22;7057;49.984;8.404;2022-11-14T10:12:22;7.90;99.90
13970;DHT22;7057;49.984;8.404;2022-11-14T10:15:10;7.90;99.90
13970;DHT22;7057;49.984;8.404;2022-11-14T10:17:55;8.20;99.90
13970;DHT22;7057;49.984;8.404;2022-11-14T10:20:29;8.40;99.90
13970;DHT22;7057;49.984;8.404;2022-11-14T10:23:22;8.60;99.90
13970;DHT22;7057;49.984;8.404;2022-11-14T10:25:55;8.70;99.90
13970;DHT22;7057;49.984;8.404;2022-11-14T10:28:41;8.70;99.90
13970;DHT22;7057;49.984;8.404;2022-11-14T10:31:28;8.80;99.90
13970;DHT22;7057;49.984;8.404;2022-11-14T10:34:06;8.90;99.90
13970;DHT22;7057;49.984;8.404;2022-11-14T10:36:53;8.80;99.90
13970;DHT22;7057;49.984;8.404;2022-11-14T10:39:25;8.80;99.90
13970;DHT22;7057;49.984;8.404;2022-11-14T10:41:58;8.90;99.90
13970;DHT22;7057;49.984;8.404;2022-11-14T10:44:31;8.90;99.90
13970;DHT22;7057;49.984;8.404;2022-11-14T10:47:02;8.90;99.90
13970;DHT22;7057;49.984;8.404;2022-11-14T10:49:33;8.90;99.90
13970;DHT22;7057;49.984;8.404;2022-11-14T10:52:05;9.10;99.90
13970;DHT22;7057;49.984;8.404;2022-11-14T10:54:38;9.20;99.90
13970;DHT22;7057;49.984;8.404;2022-11-14T10:57:14;9.40;99.90
13970;DHT22;7057;49.984;8.404;2022-11-14T10:59:41;9.50;99.90
13970;DHT22;7057;49.984;8.404;2022-11-14T11:02:09;9.50;99.90
13970;DHT22;7057;49.984;8.404;2022-11-14T11:04:39;9.40;99.90
13970;DHT22;7057;49.984;8.404;2022-11-14T11:07:23;9.50;99.90
13970;DHT22;7057;49.984;8.404;2022-11-14T11:10:19;9.70;99.90
13970;DHT22;7057;49.984;8.404;2022-11-14T11:13:04;9.90;99.90
13970;DHT22;7057;49.984;8.404;2022-11-14T11:15:38;9.90;99.90
13970;DHT22;7057;49.984;8.404;2022-11-14T11:18:22;9.90;99.90
13970;DHT22;7057;49.984;8.404;2022-11-14T11:21:06;9.90;99.90
13970;DHT22;7057;49.984;8.404;2022-11-14T11:23:34;10.00;99.90
13970;DHT22;7057;49.984;8.404;2022-11-14T11:26:03;10.20;99.90
13970;DHT22;7057;49.984;8.404;2022-11-14T11:28:35;10.30;99.90
13970;DHT22;7057;49.984;8.404;2022-11-14T11:31:04;10.50;99.90
13970;DHT22;7057;49.984;8.404;2022-11-14T11:33:33;10.50;99.90
13970;DHT22;7057;49.984;8.404;2022-11-14T11:36:04;10.30;99.90
13970;DHT22;7057;49.984;8.404;2022-11-14T11:38:32;10.30;99.90
13970;DHT22;7057;49.984;8.404;2022-11-14T11:41:05;10.50;99.90
13970;DHT22;7057;49.984;8.404;2022-11-14T11:43:38;10.60;99.90
13970;DHT22;7057;49.984;8.404;2022-11-14T11:46:12;10.50;99.90
13970;DHT22;7057;49.984;8.404;2022-11-14T11:48:41;10.50;99.90
13970;DHT22;7057;49.984;8.404;2022-11-14T11:51:14;10.50;99.90
13970;DHT22;7057;49.984;8.404;2022-11-14T11:53:45;10.60;99.90
13970;DHT22;7057;49.984;8.404;2022-11-14T11:56:16;10.70;99.90
13970;DHT22;7057;49.984;8.404;2022-11-14T11:58:47;10.90;99.90
13970;DHT22;7057;49.984;8.404;2022-11-14T12:01:15;11.00;99.90
13970;DHT22;7057;49.984;8.404;2022-11-14T12:03:46;11.00;99.90
13970;DHT22;7057;49.984;8.404;2022-11-14T12:06:17;10.90;99.90
13970;DHT22;7057;49.984;8.404;2022-11-14T12:09:02;10.90;99.90
13970;DHT22;7057;49.984;8.404;2022-11-14T12:11:33;10.80;99.90
13970;DHT22;7057;49.984;8.404;2022-11-14T12:14:17;10.80;99.90
13970;DHT22;7057;49.984;8.404;2022-11-14T12:17:20;10.90;99.90
13970;DHT22;7057;49.984;8.404;2022-11-14T12:20:12;10.90;99.90
13970;DHT22;7057;49.984;8.404;2022-11-14T12:25:42;10.90;99.90
13970;DHT22;7057;49.984;8.404;2022-11-14T12:28:25;11.00;99.90
13970;DHT22;7057;49.984;8.404;2022-11-14T12:30:59;11.10;99.90
13970;DHT22;7057;49.984;8.404;2022-11-14T12:33:29;11.20;99.90
13970;DHT22;7057;49.984;8.404;2022-11-14T12:35:59;11.20;99.90
13970;DHT22;7057;49.984;8.404;2022-11-14T12:38:33;11.20;99.90
13970;DHT22;7057;49.984;8.404;2022-11-14T12:41:01;11.10;99.90
13970;DHT22;7057;49.984;8.404;2022-11-14T12:43:33;11.10;99.90
13970;DHT22;7057;49.984;8.404;2022-11-14T12:46:03;11.00;99.90
13970;DHT22;7057;49.984;8.404;2022-11-14T12:48:35;11.00;99.90
13970;DHT22;7057;49.984;8.404;2022-11-14T12:51:07;11.00;99.90
13970;DHT22;7057;49.984;8.404;2022-11-14T12:53:54;10.90;99.90
13970;DHT22;7057;49.984;8.404;2022-11-14T12:56:47;10.80;99.90
13970;DHT22;7057;49.984;8.404;2022-11-14T12:59:32;10.70;99.90
13970;DHT22;7057;49.984;8.404;2022-11-14T13:02:25;10.60;99.90
13970;DHT22;7057;49.984;8.404;2022-11-14T13:05:14;10.50;99.90
13970;DHT22;7057;49.984;8.404;2022-11-14T13:07:49;10.60;99.90
13970;DHT22;7057;49.984;8.404;2022-11-14T13:10:24;10.40;99.90
13970;DHT22;7057;49.984;8.404;2022-11-14T13:12:58;10.60;99.90
13970;DHT22;7057;49.984;8.404;2022-11-14T13:15:48;10.50;99.90
13970;DHT22;7057;49.984;8.404;2022-11-14T13:18:34;10.50;99.90
13970;DHT22;7057;49.984;8.404;2022-11-14T13:21:22;10.40;99.90
13970;DHT22;7057;49.984;8.404;2022-11-14T13:24:07;10.30;99.90
13970;DHT22;7057;49.984;8.404;2022-11-14T13:26:41;10.30;99.90
13970;DHT22;7057;49.984;8.404;2022-11-14T13:38:57;10.20;99.90
13970;DHT22;7057;49.984;8.404;2022-11-14T13:41:54;10.30;99.90
13970;DHT22;7057;49.984;8.404;2022-11-14T13:44:51;10.20;99.90
13970;DHT22;7057;49.984;8.404;2022-11-14T13:47:35;10.20;99.90
13970;DHT22;7057;49.984;8.404;2022-11-14T13:50:08;10.20;99.90
13970;DHT22;7057;49.984;8.404;2022-11-14T13:52:41;10.20;99.90
13970;DHT22;7057;49.984;8.404;2022-11-14T13:55:18;10.20;99.90
13970;DHT22;7057;49.984;8.404;2022-11-14T13:57:57;10.20;99.90
13970;DHT22;7057;49.984;8.404;2022-11-14T14:00:47;10.20;99.90
13970;DHT22;7057;49.984;8.404;2022-11-14T14:03:35;10.20;99.90
13970;DHT22;7057;49.984;8.404;2022-11-14T14:06:20;10.30;99.90
13970;DHT22;7057;49.984;8.404;2022-11-14T14:09:03;10.30;99.90
13970;DHT22;7057;49.984;8.404;2022-11-14T14:11:49;10.30;99.90
13970;DHT22;7057;49.984;8.404;2022-11-14T14:14:32;10.40;99.90
13970;DHT22;7057;49.984;8.404;2022-11-14T14:17:08;10.50;99.90
13970;DHT22;7057;49.984;8.404;2022-11-14T14:19:44;10.60;99.90
13970;DHT22;7057;49.984;8.404;2022-11-14T14:22:19;10.70;99.90
13970;DHT22;7057;49.984;8.404;2022-11-14T14:24:53;10.70;99.90
13970;DHT22;7057;49.984;8.404;2022-11-14T14:27:27;10.70;99.90
13970;DHT22;7057;49.984;8.404;2022-11-14T14:30:02;10.70;99.90
13970;DHT22;7057;49.984;8.404;2022-11-14T14:32:32;10.60;99.90
13970;DHT22;7057;49.984;8.404;2022-11-14T14:35:22;10.60;99.90
13970;DHT22;7057;49.984;8.404;2022-11-14T14:37:51;10.60;99.90
13970;DHT22;7057;49.984;8.404;2022-11-14T14:40:24;10.60;99.90
13970;DHT22;7057;49.984;8.404;2022-11-14T14:42:53;10.60;99.90
13970;DHT22;7057;49.984;8.404;2022-11-14T14:45:24;10.60;99.90
13970;DHT22;7057;49.984;8.404;2022-11-14T14:48:00;10.60;99.90
13970;DHT22;7057;49.984;8.404;2022-11-14T14:50:32;10.60;99.90
13970;DHT22;7057;49.984;8.404;2022-11-14T14:53:02;10.60;99.90
13970;DHT22;7057;49.984;8.404;2022-11-14T14:55:31;10.60;99.90
13970;DHT22;7057;49.984;8.404;2022-11-14T14:58:12;10.60;99.90
13970;DHT22;7057;49.984;8.404;2022-11-14T15:00:50;10.60;99.90
13970;DHT22;7057;49.984;8.404;2022-11-14T15:03:19;10.50;99.90
13970;DHT22;7057;49.984;8.404;2022-11-14T15:05:47;10.50;99.90
13970;DHT22;7057;49.984;8.404;2022-11-14T15:08:15;10.50;99.90
13970;DHT22;7057;49.984;8.404;2022-11-14T15:10:43;10.50;99.90
13970;DHT22;7057;49.984;8.404;2022-11-14T15:13:13;10.50;99.90
13970;DHT22;7057;49.984;8.404;2022-11-14T15:15:43;10.40;99.90
13970;DHT22;7057;49.984;8.404;2022-11-14T15:18:18;10.40;99.90
13970;DHT22;7057;49.984;8.404;2022-11-14T15:21:12;10.30;99.90
13970;DHT22;7057;49.984;8.404;2022-11-14T15:23:41;10.40;99.90
13970;DHT22;7057;49.984;8.404;2022-11-14T15:26:14;10.30;99.90
13970;DHT22;7057;49.984;8.404;2022-11-14T15:28:42;10.30;99.90
13970;DHT22;7057;49.984;8.404;2022-11-14T15:31:19;10.30;99.90
13970;DHT22;7057;49.984;8.404;2022-11-14T15:34:04;10.30;99.90
13970;DHT22;7057;49.984;8.404;2022-11-14T15:36:32;10.20;99.90
13970;DHT22;7057;49.984;8.404;2022-11-14T15:39:02;10.20;99.90
13970;DHT22;7057;49.984;8.404;2022-11-14T15:41:30;10.10;99.90
13970;DHT22;7057;49.984;8.404;2022-11-14T15:43:58;10.00;99.90
13970;DHT22;7057;49.984;8.404;2022-11-14T15:46:41;10.00;99.90
13970;DHT22;7057;49.984;8.404;2022-11-14T15:49:15;10.10;99.90
13970;DHT22;7057;49.984;8.404;2022-11-14T15:51:46;10.10;99.90
13970;DHT22;7057;49.984;8.404;2022-11-14T15:54:25;10.10;99.90
13970;DHT22;7057;49.984;8.404;2022-11-14T15:56:54;10.30;99.90
13970;DHT22;7057;49.984;8.404;2022-11-14T15:59:22;10.60;99.90
13970;DHT22;7057;49.984;8.404;2022-11-14T16:01:55;11.00;99.90
13970;DHT22;7057;49.984;8.404;2022-11-14T16:04:26;11.20;99.90
13970;DHT22;7057;49.984;8.404;2022-11-14T16:06:54;11.30;99.90
13970;DHT22;7057;49.984;8.404;2022-11-14T16:09:21;11.30;99.90
13970;DHT22;7057;49.984;8.404;2022-11-14T16:11:48;11.30;99.90
13970;DHT22;7057;49.984;8.404;2022-11-14T16:14:15;11.30;99.90
13970;DHT22;7057;49.984;8.404;2022-11-14T16:16:42;11.30;99.90
13970;DHT22;7057;49.984;8.404;2022-11-14T16:19:12;11.40;99.90
13970;DHT22;7057;49.984;8.404;2022-11-14T16:21:40;11.30;99.90
13970;DHT22;7057;49.984;8.404;2022-11-14T16:24:14;11.30;99.90
13970;DHT22;7057;49.984;8.404;2022-11-14T16:26:42;11.30;99.90
13970;DHT22;7057;49.984;8.404;2022-11-14T16:29:09;11.30;99.90
13970;DHT22;7057;49.984;8.404;2022-11-14T16:31:36;11.10;99.90
13970;DHT22;7057;49.984;8.404;2022-11-14T16:34:04;11.10;99.90